Hlavní strana
METAR-TAF:

METAR-TAF

Letiště :

Bangui, Středoafrická republika

zeměpisná šířka: 04-24N, zeměpisná délka: 018-31E, výška: 365 m

Aktuální stav počasí

Zpráva byla vytvořena před 41 minutami, v 19:00 UTC
Bezvětří
Teplota 26°C
Vlhkost vzduchu 84%
Tlak 1009 hPa
Viditelnost: 4000 m
Skoro jasno ve výšce 1300 ft
zákal

METAR: FEFF 051900Z 00000KT 4000 HZ FEW013 26/23 Q1009 BECMG 6000

Čas: 20:41 (19:41 UTC)

Předpověď počasí

Zpráva byla vytvořena před 2 hodinami a 41 minutami, v 17:00 UTC
Předpověď platná od 05 v 18 UTC do 06 v 24 UTC
Severní vítr kt
Viditelnost: 4000 m
zákal
Změna
od 05 v 20 UTC do 05 v 21 UTC
Viditelnost 10 km a více
Žádná oblačnost pod 1500 m, nevyskytují se cumulonimby.
Změna
od 06 v 03 UTC do 06 v 04 UTC
Viditelnost: 3000 m
kouřmo
Od 06 v 0800 UTC
Východní vítr 7 kt
Viditelnost 10 km a více
Žádná oblačnost pod 1500 m, nevyskytují se cumulonimby.

TAF: FEFF 051700Z 0518/0624 00000KT 4000 HZ NSC BECMG 0520/0521 CAVOK BECMG 0603/0604 3000 BR FM060800 08007KT CAVOK

Stav a předpovědi počasí z více než 4 000 letišť (zprávy METAR a TAF).

Červené a žluté tečky na mapě představují dostupné meteorologické stanice.

Když kurzor umístíte na tečku, zobrazí se název stanice.

Pak kliknutím zobrazíte stav a předpověď počasí.

Chcete-li změnit mapu, kliknutím na zelené tlačítko se znaménkem +mapu přiblížíte, kliknutím na zelené tlačítko se znaménkem – mapu oddálíte a kliknutím na zelené šipky přejdete na sousední mapy.


METAR-TAF: